sensor_id;sensor_type;location;lat;lon;timestamp;P1;durP1;ratioP1;P2;durP2;ratioP2
10442;SDS011;5269;51.146;16.986;2022-08-19T05:15:11;15.52;;;13.23;;
10442;SDS011;5269;51.146;16.986;2022-08-19T05:34:09;16.40;;;14.02;;
10442;SDS011;5269;51.146;16.986;2022-08-19T05:40:06;16.23;;;14.25;;
10442;SDS011;5269;51.146;16.986;2022-08-19T05:42:36;18.30;;;14.02;;
10442;SDS011;5269;51.146;16.986;2022-08-19T05:45:15;19.67;;;12.98;;
10442;SDS011;5269;51.146;16.986;2022-08-19T05:54:52;17.90;;;14.43;;
10442;SDS011;5269;51.146;16.986;2022-08-19T05:59:46;15.55;;;13.85;;
10442;SDS011;5269;51.146;16.986;2022-08-19T06:09:07;18.42;;;13.70;;
10442;SDS011;5269;51.146;16.986;2022-08-19T06:11:43;20.60;;;14.02;;
10442;SDS011;5269;51.146;16.986;2022-08-19T06:14:21;17.88;;;13.98;;
10442;SDS011;5269;51.146;16.986;2022-08-19T06:44:54;18.13;;;14.10;;
10442;SDS011;5269;51.146;16.986;2022-08-19T06:47:41;16.95;;;13.02;;
10442;SDS011;5269;51.146;16.986;2022-08-19T06:50:12;15.85;;;13.23;;
10442;SDS011;5269;51.146;16.986;2022-08-19T07:05:22;14.05;;;11.02;;
10442;SDS011;5269;51.146;16.986;2022-08-19T07:07:49;19.48;;;12.55;;
10442;SDS011;5269;51.146;16.986;2022-08-19T07:10:21;15.43;;;12.10;;
10442;SDS011;5269;51.146;16.986;2022-08-19T07:13:13;13.45;;;11.77;;
10442;SDS011;5269;51.146;16.986;2022-08-19T07:15:44;14.40;;;12.20;;
10442;SDS011;5269;51.146;16.986;2022-08-19T07:25:14;14.73;;;11.93;;
10442;SDS011;5269;51.146;16.986;2022-08-19T07:31:09;16.42;;;11.32;;
10442;SDS011;5269;51.146;16.986;2022-08-19T07:36:45;15.07;;;11.27;;
10442;SDS011;5269;51.146;16.986;2022-08-19T07:39:23;12.32;;;10.88;;
10442;SDS011;5269;51.146;16.986;2022-08-19T07:53:43;15.18;;;10.73;;
10442;SDS011;5269;51.146;16.986;2022-08-19T07:56:25;13.00;;;10.88;;
10442;SDS011;5269;51.146;16.986;2022-08-19T07:59:05;15.50;;;10.30;;
10442;SDS011;5269;51.146;16.986;2022-08-19T08:01:50;12.82;;;10.20;;
10442;SDS011;5269;51.146;16.986;2022-08-19T08:04:55;15.25;;;9.48;;
10442;SDS011;5269;51.146;16.986;2022-08-19T08:31:47;14.43;;;9.18;;
10442;SDS011;5269;51.146;16.986;2022-08-19T08:38:28;10.30;;;9.23;;
10442;SDS011;5269;51.146;16.986;2022-08-19T08:40:57;14.30;;;9.10;;
10442;SDS011;5269;51.146;16.986;2022-08-19T08:43:44;13.10;;;9.07;;
10442;SDS011;5269;51.146;16.986;2022-08-19T08:50:12;9.73;;;8.75;;
10442;SDS011;5269;51.146;16.986;2022-08-19T08:52:53;11.02;;;8.50;;
10442;SDS011;5269;51.146;16.986;2022-08-19T08:55:30;12.05;;;7.90;;
10442;SDS011;5269;51.146;16.986;2022-08-19T09:03:28;9.07;;;8.13;;
10442;SDS011;5269;51.146;16.986;2022-08-19T09:06:12;13.32;;;9.00;;
10442;SDS011;5269;51.146;16.986;2022-08-19T09:09:15;11.55;;;8.60;;
10442;SDS011;5269;51.146;16.986;2022-08-19T09:12:19;9.98;;;8.50;;
10442;SDS011;5269;51.146;16.986;2022-08-19T09:14:55;11.25;;;8.85;;
10442;SDS011;5269;51.146;16.986;2022-08-19T09:17:31;11.07;;;8.57;;
10442;SDS011;5269;51.146;16.986;2022-08-19T09:20:01;14.77;;;8.48;;
10442;SDS011;5269;51.146;16.986;2022-08-19T09:22:39;12.73;;;8.32;;
10442;SDS011;5269;51.146;16.986;2022-08-19T09:25:45;11.02;;;8.68;;
10442;SDS011;5269;51.146;16.986;2022-08-19T09:28:17;12.82;;;9.55;;
10442;SDS011;5269;51.146;16.986;2022-08-19T09:30:53;11.07;;;8.10;;
10442;SDS011;5269;51.146;16.986;2022-08-19T09:33:37;10.55;;;8.50;;
10442;SDS011;5269;51.146;16.986;2022-08-19T09:36:09;10.50;;;7.88;;
10442;SDS011;5269;51.146;16.986;2022-08-19T09:38:38;15.82;;;9.07;;
10442;SDS011;5269;51.146;16.986;2022-08-19T09:44:00;15.15;;;8.82;;
10442;SDS011;5269;51.146;16.986;2022-08-19T09:47:02;11.75;;;8.40;;
10442;SDS011;5269;51.146;16.986;2022-08-19T09:52:17;13.93;;;8.52;;
10442;SDS011;5269;51.146;16.986;2022-08-19T09:54:47;16.27;;;10.50;;
10442;SDS011;5269;51.146;16.986;2022-08-19T09:57:25;11.07;;;8.63;;
10442;SDS011;5269;51.146;16.986;2022-08-19T09:59:54;14.93;;;8.73;;
10442;SDS011;5269;51.146;16.986;2022-08-19T10:02:23;9.52;;;8.63;;
10442;SDS011;5269;51.146;16.986;2022-08-19T10:04:56;11.80;;;8.40;;
10442;SDS011;5269;51.146;16.986;2022-08-19T10:07:55;15.32;;;9.63;;
10442;SDS011;5269;51.146;16.986;2022-08-19T10:10:35;11.15;;;8.65;;
10442;SDS011;5269;51.146;16.986;2022-08-19T10:13:14;14.63;;;9.10;;
10442;SDS011;5269;51.146;16.986;2022-08-19T10:16:09;11.88;;;8.88;;
10442;SDS011;5269;51.146;16.986;2022-08-19T10:18:54;11.00;;;8.93;;
10442;SDS011;5269;51.146;16.986;2022-08-19T10:21:22;11.55;;;9.10;;
10442;SDS011;5269;51.146;16.986;2022-08-19T10:23:51;15.27;;;9.30;;
10442;SDS011;5269;51.146;16.986;2022-08-19T10:26:22;14.63;;;9.45;;
10442;SDS011;5269;51.146;16.986;2022-08-19T10:28:56;10.88;;;8.90;;
10442;SDS011;5269;51.146;16.986;2022-08-19T10:31:27;13.60;;;8.88;;
10442;SDS011;5269;51.146;16.986;2022-08-19T10:34:07;11.05;;;9.43;;
10442;SDS011;5269;51.146;16.986;2022-08-19T10:36:50;11.85;;;9.63;;
10442;SDS011;5269;51.146;16.986;2022-08-19T10:39:30;12.05;;;8.95;;
10442;SDS011;5269;51.146;16.986;2022-08-19T10:42:06;10.35;;;8.15;;
10442;SDS011;5269;51.146;16.986;2022-08-19T10:44:44;11.63;;;8.55;;
10442;SDS011;5269;51.146;16.986;2022-08-19T10:47:31;10.77;;;8.70;;
10442;SDS011;5269;51.146;16.986;2022-08-19T10:50:00;15.40;;;9.00;;
10442;SDS011;5269;51.146;16.986;2022-08-19T10:52:45;8.77;;;7.95;;
10442;SDS011;5269;51.146;16.986;2022-08-19T10:55:19;10.82;;;8.45;;
10442;SDS011;5269;51.146;16.986;2022-08-19T10:58:18;9.18;;;7.63;;
10442;SDS011;5269;51.146;16.986;2022-08-19T11:00:55;11.40;;;8.23;;
10442;SDS011;5269;51.146;16.986;2022-08-19T11:03:25;9.50;;;7.90;;
10442;SDS011;5269;51.146;16.986;2022-08-19T11:05:58;8.93;;;7.95;;
10442;SDS011;5269;51.146;16.986;2022-08-19T11:08:26;10.43;;;6.90;;
10442;SDS011;5269;51.146;16.986;2022-08-19T11:10:57;10.73;;;6.93;;
10442;SDS011;5269;51.146;16.986;2022-08-19T11:13:26;11.52;;;6.07;;
10442;SDS011;5269;51.146;16.986;2022-08-19T11:15:57;13.20;;;6.40;;
10442;SDS011;5269;51.146;16.986;2022-08-19T11:18:27;6.93;;;6.22;;
10442;SDS011;5269;51.146;16.986;2022-08-19T11:20:54;11.82;;;6.60;;
10442;SDS011;5269;51.146;16.986;2022-08-19T11:23:21;13.38;;;7.03;;
10442;SDS011;5269;51.146;16.986;2022-08-19T11:25:49;8.93;;;6.57;;
10442;SDS011;5269;51.146;16.986;2022-08-19T11:28:16;7.90;;;6.50;;
10442;SDS011;5269;51.146;16.986;2022-08-19T11:30:43;9.73;;;6.07;;
10442;SDS011;5269;51.146;16.986;2022-08-19T11:33:10;10.02;;;6.72;;
10442;SDS011;5269;51.146;16.986;2022-08-19T11:35:41;8.82;;;5.85;;
10442;SDS011;5269;51.146;16.986;2022-08-19T11:38:08;11.07;;;6.30;;
10442;SDS011;5269;51.146;16.986;2022-08-19T11:40:36;10.98;;;6.55;;
10442;SDS011;5269;51.146;16.986;2022-08-19T11:43:03;10.73;;;7.05;;
10442;SDS011;5269;51.146;16.986;2022-08-19T11:45:31;6.47;;;5.78;;
10442;SDS011;5269;51.146;16.986;2022-08-19T11:47:58;7.50;;;6.55;;
10442;SDS011;5269;51.146;16.986;2022-08-19T11:50:25;10.48;;;6.28;;
10442;SDS011;5269;51.146;16.986;2022-08-19T11:52:55;10.02;;;5.93;;
10442;SDS011;5269;51.146;16.986;2022-08-19T11:55:23;10.57;;;6.35;;
10442;SDS011;5269;51.146;16.986;2022-08-19T11:57:50;9.98;;;6.50;;
10442;SDS011;5269;51.146;16.986;2022-08-19T12:00:20;9.60;;;6.57;;
10442;SDS011;5269;51.146;16.986;2022-08-19T12:02:47;9.95;;;7.00;;
10442;SDS011;5269;51.146;16.986;2022-08-19T12:05:14;11.02;;;6.80;;
10442;SDS011;5269;51.146;16.986;2022-08-19T12:07:41;8.93;;;5.97;;
10442;SDS011;5269;51.146;16.986;2022-08-19T12:10:10;9.43;;;5.57;;
10442;SDS011;5269;51.146;16.986;2022-08-19T12:12:37;5.80;;;5.15;;
10442;SDS011;5269;51.146;16.986;2022-08-19T12:15:08;13.60;;;5.93;;
10442;SDS011;5269;51.146;16.986;2022-08-19T12:17:37;5.53;;;5.00;;
10442;SDS011;5269;51.146;16.986;2022-08-19T12:20:05;6.20;;;5.35;;
10442;SDS011;5269;51.146;16.986;2022-08-19T12:22:34;9.73;;;5.60;;
10442;SDS011;5269;51.146;16.986;2022-08-19T12:25:01;9.00;;;5.25;;
10442;SDS011;5269;51.146;16.986;2022-08-19T12:27:31;6.18;;;5.38;;
10442;SDS011;5269;51.146;16.986;2022-08-19T12:29:58;8.77;;;5.07;;
10442;SDS011;5269;51.146;16.986;2022-08-19T12:32:26;10.27;;;5.15;;
10442;SDS011;5269;51.146;16.986;2022-08-19T12:34:54;6.97;;;5.18;;
10442;SDS011;5269;51.146;16.986;2022-08-19T12:37:21;7.00;;;5.00;;
10442;SDS011;5269;51.146;16.986;2022-08-19T12:39:48;4.95;;;4.45;;
10442;SDS011;5269;51.146;16.986;2022-08-19T12:42:18;7.45;;;4.80;;
10442;SDS011;5269;51.146;16.986;2022-08-19T12:44:48;5.50;;;4.88;;
10442;SDS011;5269;51.146;16.986;2022-08-19T12:47:19;5.63;;;5.00;;
10442;SDS011;5269;51.146;16.986;2022-08-19T12:49:52;6.50;;;5.20;;
10442;SDS011;5269;51.146;16.986;2022-08-19T12:52:23;6.35;;;4.72;;
10442;SDS011;5269;51.146;16.986;2022-08-19T12:54:53;8.00;;;4.90;;
10442;SDS011;5269;51.146;16.986;2022-08-19T12:57:21;5.22;;;4.72;;
10442;SDS011;5269;51.146;16.986;2022-08-19T12:59:52;6.07;;;5.50;;
10442;SDS011;5269;51.146;16.986;2022-08-19T13:02:20;5.53;;;5.03;;
10442;SDS011;5269;51.146;16.986;2022-08-19T13:04:47;7.93;;;5.38;;
10442;SDS011;5269;51.146;16.986;2022-08-19T13:07:14;6.57;;;4.90;;
10442;SDS011;5269;51.146;16.986;2022-08-19T13:09:41;8.52;;;5.13;;
10442;SDS011;5269;51.146;16.986;2022-08-19T13:12:10;6.65;;;5.35;;
10442;SDS011;5269;51.146;16.986;2022-08-19T13:14:38;10.18;;;5.13;;
10442;SDS011;5269;51.146;16.986;2022-08-19T13:17:07;6.05;;;5.10;;
10442;SDS011;5269;51.146;16.986;2022-08-19T13:19:36;7.55;;;5.38;;
10442;SDS011;5269;51.146;16.986;2022-08-19T13:22:05;6.95;;;5.10;;
10442;SDS011;5269;51.146;16.986;2022-08-19T13:24:32;5.65;;;4.60;;
10442;SDS011;5269;51.146;16.986;2022-08-19T13:26:59;6.20;;;5.18;;
10442;SDS011;5269;51.146;16.986;2022-08-19T13:29:26;7.30;;;5.15;;
10442;SDS011;5269;51.146;16.986;2022-08-19T13:32:12;5.13;;;4.63;;
10442;SDS011;5269;51.146;16.986;2022-08-19T13:35:00;5.57;;;4.30;;
10442;SDS011;5269;51.146;16.986;2022-08-19T13:37:27;10.48;;;4.50;;
10442;SDS011;5269;51.146;16.986;2022-08-19T13:40:07;7.70;;;4.50;;
10442;SDS011;5269;51.146;16.986;2022-08-19T13:42:43;8.25;;;4.57;;
10442;SDS011;5269;51.146;16.986;2022-08-19T13:45:13;5.70;;;4.72;;
10442;SDS011;5269;51.146;16.986;2022-08-19T13:47:47;5.63;;;4.80;;
10442;SDS011;5269;51.146;16.986;2022-08-19T13:50:18;7.45;;;4.40;;
10442;SDS011;5269;51.146;16.986;2022-08-19T13:52:50;11.10;;;4.95;;
10442;SDS011;5269;51.146;16.986;2022-08-19T13:55:18;6.03;;;4.38;;
10442;SDS011;5269;51.146;16.986;2022-08-19T13:57:52;7.78;;;4.55;;
10442;SDS011;5269;51.146;16.986;2022-08-19T14:00:25;5.82;;;4.60;;
10442;SDS011;5269;51.146;16.986;2022-08-19T14:02:56;7.53;;;4.70;;
10442;SDS011;5269;51.146;16.986;2022-08-19T14:05:24;4.95;;;4.47;;
10442;SDS011;5269;51.146;16.986;2022-08-19T14:07:52;7.80;;;5.13;;
10442;SDS011;5269;51.146;16.986;2022-08-19T14:10:19;5.72;;;4.88;;
10442;SDS011;5269;51.146;16.986;2022-08-19T14:12:47;6.65;;;4.65;;
10442;SDS011;5269;51.146;16.986;2022-08-19T14:15:15;8.63;;;5.28;;
10442;SDS011;5269;51.146;16.986;2022-08-19T14:17:44;5.13;;;4.57;;
10442;SDS011;5269;51.146;16.986;2022-08-19T14:20:15;7.25;;;5.32;;
10442;SDS011;5269;51.146;16.986;2022-08-19T14:22:43;5.20;;;4.70;;
10442;SDS011;5269;51.146;16.986;2022-08-19T14:25:15;7.70;;;5.20;;
10442;SDS011;5269;51.146;16.986;2022-08-19T14:27:43;7.53;;;5.30;;
10442;SDS011;5269;51.146;16.986;2022-08-19T14:30:12;5.60;;;5.07;;
10442;SDS011;5269;51.146;16.986;2022-08-19T14:32:44;8.68;;;5.22;;
10442;SDS011;5269;51.146;16.986;2022-08-19T14:35:13;10.27;;;5.20;;
10442;SDS011;5269;51.146;16.986;2022-08-19T14:37:43;6.10;;;5.13;;
10442;SDS011;5269;51.146;16.986;2022-08-19T14:40:12;6.30;;;5.70;;
10442;SDS011;5269;51.146;16.986;2022-08-19T14:42:40;6.85;;;5.05;;
10442;SDS011;5269;51.146;16.986;2022-08-19T14:45:11;7.07;;;5.25;;
10442;SDS011;5269;51.146;16.986;2022-08-19T14:47:38;9.10;;;5.53;;
10442;SDS011;5269;51.146;16.986;2022-08-19T14:50:06;6.15;;;5.55;;
10442;SDS011;5269;51.146;16.986;2022-08-19T14:52:35;7.75;;;6.25;;
10442;SDS011;5269;51.146;16.986;2022-08-19T14:55:05;7.75;;;6.57;;
10442;SDS011;5269;51.146;16.986;2022-08-19T14:57:33;8.65;;;6.55;;
10442;SDS011;5269;51.146;16.986;2022-08-19T15:00:00;12.18;;;8.02;;
10442;SDS011;5269;51.146;16.986;2022-08-19T15:02:27;10.90;;;8.68;;
10442;SDS011;5269;51.146;16.986;2022-08-19T15:04:56;12.10;;;8.77;;
10442;SDS011;5269;51.146;16.986;2022-08-19T15:07:25;10.18;;;9.18;;
10442;SDS011;5269;51.146;16.986;2022-08-19T15:09:54;11.77;;;9.90;;
10442;SDS011;5269;51.146;16.986;2022-08-19T15:12:22;11.82;;;9.90;;
10442;SDS011;5269;51.146;16.986;2022-08-19T15:14:49;12.75;;;10.73;;
10442;SDS011;5269;51.146;16.986;2022-08-19T15:17:16;14.57;;;11.02;;
10442;SDS011;5269;51.146;16.986;2022-08-19T15:19:44;14.50;;;11.73;;
10442;SDS011;5269;51.146;16.986;2022-08-19T15:22:13;12.63;;;11.25;;
10442;SDS011;5269;51.146;16.986;2022-08-19T15:24:41;15.68;;;12.65;;
10442;SDS011;5269;51.146;16.986;2022-08-19T15:27:12;17.85;;;12.27;;
10442;SDS011;5269;51.146;16.986;2022-08-19T15:29:39;20.13;;;12.32;;
10442;SDS011;5269;51.146;16.986;2022-08-19T15:32:07;16.33;;;13.50;;
10442;SDS011;5269;51.146;16.986;2022-08-19T15:34:34;15.73;;;12.65;;
10442;SDS011;5269;51.146;16.986;2022-08-19T15:37:02;16.30;;;12.73;;
10442;SDS011;5269;51.146;16.986;2022-08-19T15:39:30;17.63;;;14.15;;
10442;SDS011;5269;51.146;16.986;2022-08-19T15:41:58;16.40;;;14.65;;
10442;SDS011;5269;51.146;16.986;2022-08-19T15:44:27;16.10;;;14.48;;
10442;SDS011;5269;51.146;16.986;2022-08-19T15:46:55;21.67;;;14.82;;
10442;SDS011;5269;51.146;16.986;2022-08-19T15:49:22;21.85;;;15.63;;
10442;SDS011;5269;51.146;16.986;2022-08-19T15:51:49;17.45;;;15.63;;
10442;SDS011;5269;51.146;16.986;2022-08-19T15:54:18;17.10;;;15.50;;
10442;SDS011;5269;51.146;16.986;2022-08-19T15:56:46;18.02;;;15.20;;
10442;SDS011;5269;51.146;16.986;2022-08-19T15:59:33;16.42;;;14.88;;
10442;SDS011;5269;51.146;16.986;2022-08-19T16:02:20;16.60;;;14.77;;
10442;SDS011;5269;51.146;16.986;2022-08-19T16:05:11;17.02;;;15.23;;
10442;SDS011;5269;51.146;16.986;2022-08-19T16:07:56;18.83;;;15.55;;
10442;SDS011;5269;51.146;16.986;2022-08-19T16:10:24;17.13;;;15.57;;
10442;SDS011;5269;51.146;16.986;2022-08-19T16:12:52;17.20;;;14.88;;
10442;SDS011;5269;51.146;16.986;2022-08-19T16:15:26;18.08;;;15.20;;
10442;SDS011;5269;51.146;16.986;2022-08-19T16:17:55;22.15;;;15.13;;
10442;SDS011;5269;51.146;16.986;2022-08-19T16:20:26;20.35;;;15.00;;
10442;SDS011;5269;51.146;16.986;2022-08-19T16:22:54;16.83;;;14.13;;
10442;SDS011;5269;51.146;16.986;2022-08-19T16:25:22;18.33;;;15.07;;
10442;SDS011;5269;51.146;16.986;2022-08-19T16:27:51;17.45;;;14.27;;
10442;SDS011;5269;51.146;16.986;2022-08-19T16:30:19;16.65;;;14.90;;
10442;SDS011;5269;51.146;16.986;2022-08-19T16:32:47;17.42;;;14.30;;
10442;SDS011;5269;51.146;16.986;2022-08-19T16:35:14;17.10;;;14.10;;
10442;SDS011;5269;51.146;16.986;2022-08-19T16:37:41;16.55;;;14.32;;
10442;SDS011;5269;51.146;16.986;2022-08-19T16:40:09;16.65;;;14.65;;
10442;SDS011;5269;51.146;16.986;2022-08-19T16:42:37;16.30;;;14.57;;
10442;SDS011;5269;51.146;16.986;2022-08-19T16:45:04;17.95;;;14.55;;
10442;SDS011;5269;51.146;16.986;2022-08-19T16:47:33;16.25;;;14.23;;
10442;SDS011;5269;51.146;16.986;2022-08-19T16:50:02;16.25;;;14.65;;
10442;SDS011;5269;51.146;16.986;2022-08-19T16:52:31;16.27;;;14.43;;
10442;SDS011;5269;51.146;16.986;2022-08-19T16:55:00;15.45;;;13.95;;
10442;SDS011;5269;51.146;16.986;2022-08-19T16:57:27;19.60;;;14.75;;
10442;SDS011;5269;51.146;16.986;2022-08-19T16:59:56;16.60;;;14.20;;
10442;SDS011;5269;51.146;16.986;2022-08-19T17:02:23;19.90;;;15.35;;
10442;SDS011;5269;51.146;16.986;2022-08-19T17:04:51;15.40;;;13.90;;
10442;SDS011;5269;51.146;16.986;2022-08-19T17:07:20;15.90;;;14.23;;
10442;SDS011;5269;51.146;16.986;2022-08-19T17:09:47;15.35;;;13.88;;
10442;SDS011;5269;51.146;16.986;2022-08-19T17:12:14;15.32;;;13.80;;
10442;SDS011;5269;51.146;16.986;2022-08-19T17:14:41;15.75;;;14.07;;
10442;SDS011;5269;51.146;16.986;2022-08-19T17:17:10;15.45;;;14.05;;
10442;SDS011;5269;51.146;16.986;2022-08-19T17:19:37;15.30;;;13.80;;
10442;SDS011;5269;51.146;16.986;2022-08-19T17:22:06;15.40;;;13.80;;
10442;SDS011;5269;51.146;16.986;2022-08-19T17:24:35;17.60;;;14.35;;
10442;SDS011;5269;51.146;16.986;2022-08-19T17:27:03;17.83;;;14.63;;
10442;SDS011;5269;51.146;16.986;2022-08-19T17:29:30;15.63;;;14.10;;
10442;SDS011;5269;51.146;16.986;2022-08-19T17:31:58;16.70;;;14.88;;
10442;SDS011;5269;51.146;16.986;2022-08-19T17:34:25;16.40;;;14.43;;
10442;SDS011;5269;51.146;16.986;2022-08-19T17:36:52;14.80;;;13.38;;
10442;SDS011;5269;51.146;16.986;2022-08-19T17:39:20;15.18;;;13.80;;
10442;SDS011;5269;51.146;16.986;2022-08-19T17:41:54;15.63;;;14.13;;
10442;SDS011;5269;51.146;16.986;2022-08-19T17:44:24;15.48;;;14.13;;
10442;SDS011;5269;51.146;16.986;2022-08-19T17:46:51;15.20;;;13.57;;
10442;SDS011;5269;51.146;16.986;2022-08-19T17:49:20;17.77;;;14.05;;
10442;SDS011;5269;51.146;16.986;2022-08-19T17:51:47;15.20;;;13.85;;
10442;SDS011;5269;51.146;16.986;2022-08-19T17:54:18;15.80;;;14.27;;
10442;SDS011;5269;51.146;16.986;2022-08-19T17:56:45;15.65;;;14.23;;
10442;SDS011;5269;51.146;16.986;2022-08-19T17:59:16;15.20;;;13.70;;
10442;SDS011;5269;51.146;16.986;2022-08-19T18:01:43;17.35;;;14.65;;
10442;SDS011;5269;51.146;16.986;2022-08-19T18:04:11;21.90;;;14.38;;
10442;SDS011;5269;51.146;16.986;2022-08-19T18:06:38;14.75;;;13.35;;
10442;SDS011;5269;51.146;16.986;2022-08-19T18:09:08;16.23;;;14.77;;
10442;SDS011;5269;51.146;16.986;2022-08-19T18:11:49;16.27;;;14.55;;
10442;SDS011;5269;51.146;16.986;2022-08-19T18:14:18;18.73;;;14.70;;
10442;SDS011;5269;51.146;16.986;2022-08-19T18:16:49;16.15;;;13.68;;
10442;SDS011;5269;51.146;16.986;2022-08-19T18:19:18;16.27;;;13.38;;
10442;SDS011;5269;51.146;16.986;2022-08-19T18:21:45;14.93;;;13.57;;
10442;SDS011;5269;51.146;16.986;2022-08-19T18:24:12;17.60;;;13.75;;
10442;SDS011;5269;51.146;16.986;2022-08-19T18:26:39;17.33;;;13.95;;
10442;SDS011;5269;51.146;16.986;2022-08-19T18:29:07;17.20;;;13.65;;
10442;SDS011;5269;51.146;16.986;2022-08-19T18:31:38;17.10;;;14.40;;
10442;SDS011;5269;51.146;16.986;2022-08-19T18:37:10;15.88;;;14.27;;
10442;SDS011;5269;51.146;16.986;2022-08-19T18:39:38;16.98;;;15.25;;
10442;SDS011;5269;51.146;16.986;2022-08-19T18:42:22;20.48;;;17.20;;
10442;SDS011;5269;51.146;16.986;2022-08-19T18:45:07;15.43;;;13.95;;
10442;SDS011;5269;51.146;16.986;2022-08-19T18:47:54;17.77;;;15.25;;
10442;SDS011;5269;51.146;16.986;2022-08-19T18:50:38;15.18;;;13.65;;
10442;SDS011;5269;51.146;16.986;2022-08-19T18:53:07;16.67;;;14.63;;
10442;SDS011;5269;51.146;16.986;2022-08-19T18:55:34;18.42;;;14.15;;
10442;SDS011;5269;51.146;16.986;2022-08-19T18:58:02;16.10;;;14.50;;
10442;SDS011;5269;51.146;16.986;2022-08-19T19:00:29;16.17;;;14.27;;
10442;SDS011;5269;51.146;16.986;2022-08-19T19:02:58;16.70;;;14.20;;
10442;SDS011;5269;51.146;16.986;2022-08-19T19:05:25;17.00;;;14.85;;
10442;SDS011;5269;51.146;16.986;2022-08-19T19:07:52;15.82;;;14.32;;
10442;SDS011;5269;51.146;16.986;2022-08-19T19:10:20;15.82;;;14.32;;
10442;SDS011;5269;51.146;16.986;2022-08-19T19:12:49;17.88;;;15.13;;
10442;SDS011;5269;51.146;16.986;2022-08-19T19:15:16;17.88;;;14.55;;
10442;SDS011;5269;51.146;16.986;2022-08-19T19:17:43;16.35;;;14.38;;
10442;SDS011;5269;51.146;16.986;2022-08-19T19:20:12;16.77;;;14.93;;
10442;SDS011;5269;51.146;16.986;2022-08-19T19:22:42;18.23;;;16.33;;
10442;SDS011;5269;51.146;16.986;2022-08-19T19:25:09;16.58;;;15.00;;
10442;SDS011;5269;51.146;16.986;2022-08-19T19:27:36;16.02;;;14.48;;
10442;SDS011;5269;51.146;16.986;2022-08-19T19:30:05;17.75;;;14.80;;
10442;SDS011;5269;51.146;16.986;2022-08-19T19:32:32;16.40;;;14.77;;
10442;SDS011;5269;51.146;16.986;2022-08-19T19:35:03;18.77;;;14.70;;
10442;SDS011;5269;51.146;16.986;2022-08-19T19:37:31;16.40;;;14.55;;
10442;SDS011;5269;51.146;16.986;2022-08-19T19:39:58;20.10;;;15.35;;
10442;SDS011;5269;51.146;16.986;2022-08-19T19:42:25;16.98;;;15.38;;
10442;SDS011;5269;51.146;16.986;2022-08-19T19:44:53;17.50;;;15.65;;
10442;SDS011;5269;51.146;16.986;2022-08-19T19:47:21;17.38;;;15.65;;
10442;SDS011;5269;51.146;16.986;2022-08-19T19:49:49;16.83;;;14.80;;
10442;SDS011;5269;51.146;16.986;2022-08-19T19:52:19;16.70;;;14.98;;
10442;SDS011;5269;51.146;16.986;2022-08-19T19:54:47;16.73;;;15.02;;
10442;SDS011;5269;51.146;16.986;2022-08-19T19:57:14;16.98;;;15.32;;
10442;SDS011;5269;51.146;16.986;2022-08-19T19:59:41;16.70;;;15.10;;
10442;SDS011;5269;51.146;16.986;2022-08-19T20:02:09;18.17;;;16.38;;
10442;SDS011;5269;51.146;16.986;2022-08-19T20:04:36;18.00;;;15.55;;
10442;SDS011;5269;51.146;16.986;2022-08-19T20:07:03;17.77;;;15.73;;
10442;SDS011;5269;51.146;16.986;2022-08-19T20:09:30;18.15;;;16.10;;
10442;SDS011;5269;51.146;16.986;2022-08-19T20:11:58;18.92;;;17.02;;
10442;SDS011;5269;51.146;16.986;2022-08-19T20:14:28;19.35;;;17.13;;
10442;SDS011;5269;51.146;16.986;2022-08-19T20:16:57;22.10;;;17.65;;
10442;SDS011;5269;51.146;16.986;2022-08-19T20:19:25;21.25;;;17.00;;
10442;SDS011;5269;51.146;16.986;2022-08-19T20:21:56;16.80;;;13.70;;
10442;SDS011;5269;51.146;16.986;2022-08-19T20:24:24;15.75;;;12.88;;
10442;SDS011;5269;51.146;16.986;2022-08-19T20:26:58;14.07;;;12.25;;
10442;SDS011;5269;51.146;16.986;2022-08-19T20:29:25;12.57;;;11.43;;
10442;SDS011;5269;51.146;16.986;2022-08-19T20:31:57;14.02;;;11.57;;
10442;SDS011;5269;51.146;16.986;2022-08-19T20:34:25;15.43;;;10.52;;
10442;SDS011;5269;51.146;16.986;2022-08-19T20:36:52;14.30;;;10.80;;
10442;SDS011;5269;51.146;16.986;2022-08-19T20:39:19;14.40;;;10.90;;
10442;SDS011;5269;51.146;16.986;2022-08-19T20:41:46;11.90;;;9.93;;
10442;SDS011;5269;51.146;16.986;2022-08-19T20:44:15;13.82;;;10.50;;
10442;SDS011;5269;51.146;16.986;2022-08-19T20:46:42;16.27;;;10.48;;
10442;SDS011;5269;51.146;16.986;2022-08-19T20:49:09;13.95;;;9.68;;
10442;SDS011;5269;51.146;16.986;2022-08-19T20:51:36;14.57;;;10.10;;
10442;SDS011;5269;51.146;16.986;2022-08-19T20:54:03;13.27;;;9.65;;
10442;SDS011;5269;51.146;16.986;2022-08-19T20:56:30;11.52;;;9.68;;
10442;SDS011;5269;51.146;16.986;2022-08-19T20:58:58;12.73;;;8.27;;
10442;SDS011;5269;51.146;16.986;2022-08-19T21:01:29;11.10;;;9.27;;
10442;SDS011;5269;51.146;16.986;2022-08-19T21:04:12;15.00;;;9.85;;
10442;SDS011;5269;51.146;16.986;2022-08-19T21:06:42;12.30;;;9.45;;
10442;SDS011;5269;51.146;16.986;2022-08-19T21:09:09;12.93;;;9.18;;
10442;SDS011;5269;51.146;16.986;2022-08-19T21:11:36;16.75;;;10.23;;
10442;SDS011;5269;51.146;16.986;2022-08-19T21:14:03;17.17;;;9.25;;
10442;SDS011;5269;51.146;16.986;2022-08-19T21:16:31;12.98;;;9.80;;
10442;SDS011;5269;51.146;16.986;2022-08-19T21:18:58;11.95;;;9.68;;
10442;SDS011;5269;51.146;16.986;2022-08-19T21:21:26;12.80;;;9.43;;
10442;SDS011;5269;51.146;16.986;2022-08-19T21:23:53;14.95;;;9.70;;
10442;SDS011;5269;51.146;16.986;2022-08-19T21:26:20;14.68;;;9.25;;
10442;SDS011;5269;51.146;16.986;2022-08-19T21:28:48;15.43;;;9.32;;
10442;SDS011;5269;51.146;16.986;2022-08-19T21:31:15;14.93;;;9.30;;
10442;SDS011;5269;51.146;16.986;2022-08-19T21:33:44;12.55;;;8.68;;
10442;SDS011;5269;51.146;16.986;2022-08-19T21:36:12;14.27;;;8.85;;
10442;SDS011;5269;51.146;16.986;2022-08-19T21:38:39;11.68;;;8.73;;
10442;SDS011;5269;51.146;16.986;2022-08-19T21:41:06;13.50;;;9.07;;
10442;SDS011;5269;51.146;16.986;2022-08-19T21:43:34;12.05;;;9.25;;
10442;SDS011;5269;51.146;16.986;2022-08-19T21:46:03;12.20;;;9.60;;
10442;SDS011;5269;51.146;16.986;2022-08-19T21:48:31;13.32;;;9.20;;
10442;SDS011;5269;51.146;16.986;2022-08-19T21:50:59;12.30;;;8.70;;
10442;SDS011;5269;51.146;16.986;2022-08-19T21:53:27;11.85;;;8.52;;
10442;SDS011;5269;51.146;16.986;2022-08-19T21:55:54;18.20;;;9.43;;
10442;SDS011;5269;51.146;16.986;2022-08-19T21:58:23;14.73;;;8.85;;
10442;SDS011;5269;51.146;16.986;2022-08-19T22:00:50;12.82;;;8.07;;
10442;SDS011;5269;51.146;16.986;2022-08-19T22:03:17;11.95;;;8.68;;
10442;SDS011;5269;51.146;16.986;2022-08-19T22:05:46;11.57;;;8.25;;
10442;SDS011;5269;51.146;16.986;2022-08-19T22:08:14;10.70;;;8.15;;
10442;SDS011;5269;51.146;16.986;2022-08-19T22:10:41;11.40;;;7.85;;
10442;SDS011;5269;51.146;16.986;2022-08-19T22:13:09;11.55;;;8.02;;
10442;SDS011;5269;51.146;16.986;2022-08-19T22:15:36;12.32;;;7.40;;
10442;SDS011;5269;51.146;16.986;2022-08-19T22:18:03;18.67;;;7.32;;
10442;SDS011;5269;51.146;16.986;2022-08-19T22:20:30;10.20;;;6.70;;
10442;SDS011;5269;51.146;16.986;2022-08-19T22:22:59;13.75;;;6.45;;
10442;SDS011;5269;51.146;16.986;2022-08-19T22:25:30;10.07;;;6.03;;
10442;SDS011;5269;51.146;16.986;2022-08-19T22:27:59;10.35;;;5.88;;
10442;SDS011;5269;51.146;16.986;2022-08-19T22:30:28;9.40;;;5.95;;
10442;SDS011;5269;51.146;16.986;2022-08-19T22:32:57;12.13;;;6.03;;
10442;SDS011;5269;51.146;16.986;2022-08-19T22:35:25;12.82;;;6.75;;